Time;durP1;ratioP1;P1;durP2;ratioP2;P2;SDS_P1;SDS_P2;PMS_P1;PMS_P2;Temp;Humidity;BMP_temperature;BMP_pressure;BME280_temperature;BME280_humidity;BME280_pressure;Samples;Min_cycle;Max_cycle;Signal;HPM_P1;HPM_P2
2024/01/30 00:05:04;;;;;;;6.40;2.90;;;;;;;0.39;69.70;101111.11;102774;1291;599868;-27
2024/01/30 00:07:32;;;;;;;3.40;2.40;;;;;;;0.17;70.41;101114.48;105128;1264;61286;-28
2024/01/30 00:10:00;;;;;;;4.90;2.70;;;;;;;-0.07;71.30;101112.88;105113;1264;61129;-28
2024/01/30 00:20:06;;;;;;;4.50;2.60;;;;;;;1.00;68.57;101109.28;102709;1290;600068;-27
2024/01/30 00:22:33;;;;;;;7.70;3.20;;;;;;;0.42;70.05;101102.37;105327;1265;61170;-28
2024/01/30 00:25:01;;;;;;;5.20;3.20;;;;;;;0.40;70.14;101098.63;105535;1257;61059;-28
2024/01/30 00:27:29;;;;;;;2.90;2.20;;;;;;;-0.06;71.66;101090.50;105683;1254;72216;-28
2024/01/30 00:37:33;;;;;;;9.10;3.70;;;;;;;0.63;70.48;101100.52;102707;1290;600007;-27
2024/01/30 00:40:01;;;;;;;6.50;3.70;;;;;;;0.71;69.72;101099.60;105068;1269;61190;-28
2024/01/30 00:42:29;;;;;;;7.70;3.80;;;;;;;0.40;70.43;101104.78;104875;1267;61062;-28
2024/01/30 00:44:57;;;;;;;7.30;4.30;;;;;;;0.13;71.55;101101.86;104839;1270;72162;-28
2024/01/30 00:47:25;;;;;;;7.70;4.80;;;;;;;-0.07;72.29;101098.21;104903;1273;74253;-28
2024/01/30 00:57:37;;;;;;;5.50;3.40;;;;;;;0.48;70.00;101086.95;102657;1292;600412;-28
2024/01/30 01:00:07;;;;;;;2.20;1.80;;;;;;;0.03;70.84;101083.98;104805;1270;61225;-28
2024/01/30 01:02:35;;;;;;;5.90;3.30;;;;;;;-0.25;71.59;101079.84;104767;1273;61239;-28
2024/01/30 01:05:03;;;;;;;4.70;3.40;;;;;;;-0.41;72.13;101081.94;104885;1271;72221;-28
2024/01/30 01:07:30;;;;;;;6.00;3.80;;;;;;;-0.82;73.92;101073.52;104817;1270;73055;-29
2024/01/30 01:09:58;;;;;;;8.20;2.50;;;;;;;-0.87;74.23;101070.13;104792;1266;71393;-29
2024/01/30 01:20:05;;;;;;;3.40;2.50;;;;;;;-0.69;74.04;101066.85;102687;1292;600056;-27
2024/01/30 01:22:32;;;;;;;6.60;4.00;;;;;;;-0.71;73.48;101065.31;104865;1271;61183;-28
2024/01/30 01:25:00;;;;;;;8.00;4.00;;;;;;;-0.81;73.49;101064.14;104797;1266;61188;-28
2024/01/30 01:27:28;;;;;;;7.10;3.70;;;;;;;-1.02;74.15;101062.81;104905;1270;70964;-27
2024/01/30 01:29:56;;;;;;;6.00;2.70;;;;;;;-1.01;74.81;101058.55;104818;1270;74526;-28
2024/01/30 01:32:23;;;;;;;4.30;2.20;;;;;;;-0.45;73.35;101060.45;105511;1258;72646;-28
2024/01/30 01:34:51;;;;;;;6.90;3.50;;;;;;;-0.14;71.96;101058.11;105467;1256;175869;-29
2024/01/30 01:37:21;;;;;;;6.90;3.30;;;;;;;-0.13;71.51;101055.20;105651;1254;61036;-28
2024/01/30 01:39:50;;;;;;;3.90;2.80;;;;;;;-0.34;71.53;101050.19;105560;1261;72235;-28
2024/01/30 01:42:17;;;;;;;7.00;3.70;;;;;;;-0.53;71.83;101048.55;105611;1259;73169;-28
2024/01/30 01:44:45;;;;;;;8.40;3.80;;;;;;;-0.74;72.59;101048.60;105622;1254;72659;-28
2024/01/30 01:47:12;;;;;;;5.90;3.80;;;;;;;-1.00;73.38;101043.55;105634;1259;61159;-28
2024/01/30 01:49:40;;;;;;;7.00;4.20;;;;;;;-1.25;74.52;101040.34;105654;1254;61206;-28
2024/01/30 01:52:08;;;;;;;5.60;2.70;;;;;;;-1.47;75.74;101035.23;105618;1259;71814;-28
2024/01/30 01:54:36;;;;;;;4.70;3.20;;;;;;;-0.83;75.01;101041.45;105490;1258;73292;-28
2024/01/30 01:57:04;;;;;;;4.70;3.20;;;;;;;-0.12;72.21;101040.86;105463;1261;72682;-28
2024/01/30 01:59:31;;;;;;;7.20;3.40;;;;;;;-0.26;71.62;101041.61;105544;1256;61047;-28
2024/01/30 02:01:59;;;;;;;5.60;3.80;;;;;;;-0.36;71.99;101043.19;105532;1258;61107;-28
2024/01/30 02:04:27;;;;;;;6.30;3.30;;;;;;;-0.75;73.08;101042.98;105520;1254;73046;-28
2024/01/30 02:06:55;;;;;;;9.50;4.30;;;;;;;-0.86;73.40;101047.77;105462;1254;74267;-28
2024/01/30 02:09:23;;;;;;;6.80;3.40;;;;;;;-0.96;73.01;101049.17;105294;1257;72691;-28
2024/01/30 02:11:50;;;;;;;4.50;3.00;;;;;;;-1.24;73.77;101043.73;105434;1255;61138;-27
2024/01/30 02:21:53;;;;;;;5.40;2.80;;;;;;;-0.62;74.43;101037.48;102719;1292;600065;-25
2024/01/30 02:31:57;;;;;;;6.30;3.00;;;;;;;-0.99;73.88;101027.34;102665;1295;599602;-27
2024/01/30 02:42:01;;;;;;;4.50;3.00;;;;;;;-1.09;75.74;101014.40;102664;1296;600565;-27
2024/01/30 02:44:47;;;;;;;3.80;2.60;;;;;;;-0.74;73.71;101009.55;104882;1266;61543;-28
2024/01/30 02:47:15;;;;;;;6.10;2.70;;;;;;;-0.85;73.86;101007.52;104846;1272;61111;-28
2024/01/30 02:49:43;;;;;;;7.80;4.00;;;;;;;-1.12;74.51;101008.61;104886;1270;72266;-28
2024/01/30 02:52:10;;;;;;;19.00;5.80;;;;;;;-1.40;75.03;101001.67;104886;1269;73157;-28
2024/01/30 02:54:38;;;;;;;9.90;4.60;;;;;;;-1.68;76.20;101002.34;104701;1269;180809;-28
2024/01/30 02:57:06;;;;;;;14.50;4.80;;;;;;;-1.98;78.25;101000.45;104927;1269;61249;-27
2024/01/30 02:59:35;;;;;;;6.50;3.90;;;;;;;-1.35;76.63;101003.87;105173;1264;61152;-28
2024/01/30 03:02:03;;;;;;;7.20;4.90;;;;;;;-1.05;74.85;101002.48;105230;1267;71042;-28
2024/01/30 03:11:28;;;;;;;9.90;4.60;;;;;;;-1.87;77.07;100989.05;102454;1292;615152;-26
2024/01/30 03:13:54;;;;;;;3.80;2.30;;;;;;;-2.08;77.88;100985.11;104889;1266;61155;-27
2024/01/30 03:16:21;;;;;;;2.70;2.40;;;;;;;-1.69;76.56;100982.94;104865;1271;61133;-25
2024/01/30 03:18:48;;;;;;;11.40;4.90;;;;;;;-1.30;75.11;100978.13;104901;1269;72016;-26
2024/01/30 03:21:15;;;;;;;6.80;4.10;;;;;;;-1.22;74.02;100982.05;104875;1266;74911;-28
2024/01/30 03:23:42;;;;;;;6.60;4.00;;;;;;;-1.56;74.62;100979.00;104815;1262;177945;-28
2024/01/30 03:26:10;;;;;;;8.70;4.20;;;;;;;-1.89;75.80;100980.20;105185;1264;60985;-28
2024/01/30 03:28:37;;;;;;;5.90;4.40;;;;;;;-2.11;76.65;100979.15;105171;1269;61224;-28
2024/01/30 03:31:04;;;;;;;10.20;3.60;;;;;;;-2.14;76.84;100973.02;105139;1264;72207;-28
2024/01/30 03:33:31;;;;;;;6.50;3.50;;;;;;;-1.65;75.18;100971.19;105136;1269;74347;-28
2024/01/30 03:36:03;;;;;;;7.70;4.60;;;;;;;-1.48;74.51;100966.92;105222;1264;72983;-28
2024/01/30 03:38:32;;;;;;;6.00;4.10;;;;;;;-1.40;73.66;100961.29;104938;1269;61081;-29
2024/01/30 03:40:59;;;;;;;10.10;4.50;;;;;;;-1.80;74.77;100963.69;105145;1271;61121;-26
2024/01/30 03:43:26;;;;;;;4.70;2.90;;;;;;;-1.99;75.32;100964.36;105100;1264;73016;-26
2024/01/30 03:45:53;;;;;;;11.30;4.20;;;;;;;-2.32;76.31;100960.05;105208;1264;74309;-26
2024/01/30 03:48:20;;;;;;;5.10;3.30;;;;;;;-2.09;76.34;100960.93;105193;1264;72671;-26
2024/01/30 03:50:47;;;;;;;8.30;4.00;;;;;;;-1.48;74.22;100957.20;105145;1263;61084;-26
2024/01/30 03:53:14;;;;;;;4.10;3.50;;;;;;;-1.54;73.24;100957.55;104920;1264;61179;-25
2024/01/30 03:55:41;;;;;;;8.20;4.30;;;;;;;-1.80;74.19;100962.48;105063;1269;72951;-26
2024/01/30 03:58:08;;;;;;;7.50;3.10;;;;;;;-1.92;74.70;100964.54;105181;1267;74385;-26
2024/01/30 04:00:35;;;;;;;9.30;4.60;;;;;;;-2.09;74.72;100968.42;105646;1257;72529;-26
2024/01/30 04:03:03;;;;;;;6.80;3.00;;;;;;;-2.36;75.66;100971.60;105576;1257;61048;-28
2024/01/30 04:05:30;;;;;;;6.00;3.20;;;;;;;-2.64;77.75;100966.58;105345;1263;61117;-28
2024/01/30 04:07:57;;;;;;;4.10;2.80;;;;;;;-1.75;74.54;100965.55;105227;1257;72833;-25
2024/01/30 04:10:24;;;;;;;4.60;3.40;;;;;;;-1.61;73.14;100965.89;105492;1260;74343;-25
2024/01/30 04:12:51;;;;;;;6.10;3.40;;;;;;;-1.99;74.29;100968.79;105620;1258;72447;-26
2024/01/30 04:15:19;;;;;;;4.60;3.00;;;;;;;-2.14;74.64;100971.14;105510;1262;61134;-26
2024/01/30 04:17:45;;;;;;;3.80;2.90;;;;;;;-2.29;74.95;100969.07;105590;1261;61099;-26
2024/01/30 04:20:18;;;;;;;7.40;4.30;;;;;;;-2.39;74.99;100975.16;105571;1259;72894;-26
2024/01/30 04:22:45;;;;;;;4.70;2.90;;;;;;;-2.66;75.50;100972.36;105566;1262;74604;-26
2024/01/30 04:25:13;;;;;;;9.50;2.90;;;;;;;-2.59;76.56;100970.50;105500;1260;72719;-28
2024/01/30 04:27:40;;;;;;;4.80;2.90;;;;;;;-2.10;75.48;100968.77;105433;1260;61071;-28
2024/01/30 04:30:08;;;;;;;5.90;3.40;;;;;;;-1.86;74.16;100971.86;105451;1260;61173;-26
2024/01/30 04:32:35;;;;;;;6.60;3.40;;;;;;;-1.84;73.42;100970.17;105176;1265;72910;-26
2024/01/30 04:35:03;;;;;;;6.30;3.30;;;;;;;-2.22;74.56;100969.25;105240;1257;74355;-26
2024/01/30 04:37:33;;;;;;;5.90;4.10;;;;;;;-2.33;74.39;100969.73;105626;1256;72542;-25
2024/01/30 04:40:00;;;;;;;8.80;4.70;;;;;;;-2.54;74.99;100970.70;105900;1254;61064;-25
2024/01/30 04:42:27;;;;;;;6.60;3.90;;;;;;;-2.72;75.42;100970.13;105845;1254;61077;-28
2024/01/30 04:44:54;;;;;;;3.70;2.40;;;;;;;-2.92;76.25;100967.31;105574;1260;73575;-28
2024/01/30 04:47:21;;;;;;;8.10;4.10;;;;;;;-2.25;75.17;100968.23;105732;1260;74305;-28
2024/01/30 04:49:48;;;;;;;7.40;3.80;;;;;;;-1.83;73.50;100969.31;105860;1257;72510;-28
2024/01/30 04:52:15;;;;;;;10.30;4.70;;;;;;;-1.73;73.32;100969.48;105896;1257;61691;-28
2024/01/30 04:54:43;;;;;;;9.20;4.60;;;;;;;-1.90;73.11;100968.95;105762;1254;61141;-28
2024/01/30 04:57:12;;;;;;;8.60;4.60;;;;;;;-2.14;73.48;100970.80;105647;1259;73031;-28
2024/01/30 04:59:39;;;;;;;4.50;3.60;;;;;;;-2.48;74.65;100968.51;105915;1254;74132;-28
2024/01/30 05:02:06;;;;;;;8.00;3.80;;;;;;;-2.81;76.31;100966.00;105705;1258;72611;-28
2024/01/30 05:04:34;;;;;;;7.40;4.00;;;;;;;-2.97;76.84;100968.14;105674;1260;61148;-28
2024/01/30 05:07:01;;;;;;;3.60;2.80;;;;;;;-3.21;78.52;100966.66;105611;1259;61193;-28
2024/01/30 05:09:28;;;;;;;8.10;3.90;;;;;;;-2.60;77.75;100963.35;105754;1257;73044;-29
2024/01/30 05:11:55;;;;;;;5.60;3.40;;;;;;;-1.91;74.68;100959.59;105767;1257;74841;-28
2024/01/30 05:14:22;;;;;;;6.70;4.00;;;;;;;-2.01;74.66;100958.05;105856;1257;72595;-28
2024/01/30 05:16:49;;;;;;;8.00;4.50;;;;;;;-2.14;74.26;100952.26;105628;1255;61124;-28
2024/01/30 05:19:17;;;;;;;8.80;4.80;;;;;;;-2.31;74.28;100948.14;105804;1254;61157;-28
2024/01/30 05:21:44;;;;;;;8.10;4.20;;;;;;;-2.61;75.16;100948.06;105756;1257;73092;-28
2024/01/30 05:24:11;;;;;;;7.00;3.80;;;;;;;-2.88;76.40;100947.79;105645;1254;74326;-28
2024/01/30 05:26:38;;;;;;;5.30;3.60;;;;;;;-3.16;78.11;100940.17;105809;1254;72697;-28
2024/01/30 05:29:06;;;;;;;5.10;2.50;;;;;;;-2.65;77.60;100937.15;105611;1256;61119;-28
2024/01/30 05:31:34;;;;;;;7.40;3.70;;;;;;;-2.09;74.92;100943.76;105613;1254;61137;-28
2024/01/30 05:34:01;;;;;;;10.50;4.50;;;;;;;-2.17;74.73;100941.02;105686;1260;71878;-28
2024/01/30 05:36:28;;;;;;;8.00;4.50;;;;;;;-2.34;75.12;100939.46;105896;1257;74314;-28
2024/01/30 05:38:56;;;;;;;11.00;5.50;;;;;;;-2.63;76.03;100938.86;105869;1257;73273;-28
2024/01/30 05:41:23;;;;;;;9.00;5.00;;;;;;;-2.76;76.48;100940.69;105681;1259;61060;-28
2024/01/30 05:43:50;;;;;;;10.20;5.30;;;;;;;-2.97;77.32;100942.14;105799;1255;61134;-28
2024/01/30 05:46:17;;;;;;;7.20;3.60;;;;;;;-3.00;77.34;100945.86;105856;1259;72923;-28
2024/01/30 05:48:44;;;;;;;8.30;4.50;;;;;;;-2.35;75.98;100942.52;105859;1263;74293;-28
2024/01/30 05:51:11;;;;;;;9.80;4.80;;;;;;;-1.78;73.56;100941.73;105830;1257;72661;-29
2024/01/30 05:53:38;;;;;;;7.00;4.20;;;;;;;-1.76;73.18;100937.13;105851;1257;60985;-26
2024/01/30 05:56:06;;;;;;;6.80;4.20;;;;;;;-2.07;73.94;100934.89;105853;1259;61176;-26
2024/01/30 05:58:32;;;;;;;9.60;4.30;;;;;;;-2.29;74.64;100937.77;105695;1260;73094;-27
2024/01/30 06:00:59;;;;;;;11.80;5.20;;;;;;;-2.57;75.60;100937.19;105876;1258;74406;-28
2024/01/30 06:03:26;;;;;;;13.60;6.20;;;;;;;-2.73;76.37;100940.20;105873;1257;72648;-28
2024/01/30 06:05:53;;;;;;;9.80;5.50;;;;;;;-2.80;76.42;100944.59;105750;1254;61058;-28
2024/01/30 06:08:20;;;;;;;7.60;2.80;;;;;;;-2.96;77.26;100945.88;105625;1259;61186;-29
2024/01/30 06:10:47;;;;;;;8.80;4.70;;;;;;;-2.33;76.21;100950.00;105551;1257;72981;-28
2024/01/30 06:13:15;;;;;;;9.60;5.20;;;;;;;-1.83;73.89;100957.73;105658;1259;74411;-28
2024/01/30 06:15:42;;;;;;;7.60;4.60;;;;;;;-1.62;72.95;100955.52;105812;1257;74104;-28
2024/01/30 06:18:09;;;;;;;9.90;5.20;;;;;;;-1.74;72.87;100960.79;105666;1254;61066;-28
2024/01/30 06:20:36;;;;;;;11.70;5.40;;;;;;;-1.93;73.42;100961.64;105770;1255;61028;-28
2024/01/30 06:23:03;;;;;;;12.50;5.60;;;;;;;-2.04;74.04;100964.69;105653;1261;73034;-28
2024/01/30 06:25:30;;;;;;;8.90;5.00;;;;;;;-2.17;74.39;100966.04;105785;1254;74218;-27
2024/01/30 06:27:57;;;;;;;13.70;5.90;;;;;;;-2.16;73.99;100968.08;105847;1267;72644;-28
2024/01/30 06:30:24;;;;;;;18.50;6.30;;;;;;;-2.20;73.85;100965.35;105570;1257;61149;-28
2024/01/30 06:32:51;;;;;;;11.60;6.20;;;;;;;-2.29;73.83;100962.27;105652;1254;61740;-29
2024/01/30 06:35:18;;;;;;;8.40;4.20;;;;;;;-2.38;74.13;100963.60;105772;1257;73119;-25
2024/01/30 06:37:45;;;;;;;10.20;4.00;;;;;;;-1.96;74.07;100960.44;105861;1255;73303;-26
2024/01/30 06:40:12;;;;;;;13.70;7.70;;;;;;;-1.15;72.39;100965.49;105883;1257;72398;-26
2024/01/30 06:42:39;;;;;;;5.70;3.40;;;;;;;-0.89;70.92;100964.23;105796;1253;61134;-26
2024/01/30 06:45:07;;;;;;;11.60;5.00;;;;;;;-0.97;70.79;100962.20;105852;1257;61075;-26
2024/01/30 06:47:34;;;;;;;9.90;6.10;;;;;;;-1.24;71.21;100961.61;105702;1261;73081;-27
2024/01/30 06:50:02;;;;;;;11.60;6.20;;;;;;;-1.65;72.12;100963.84;105835;1259;74821;-28
2024/01/30 06:52:29;;;;;;;9.30;5.00;;;;;;;-2.07;73.82;100967.40;105706;1259;72616;-28
2024/01/30 06:54:56;;;;;;;10.80;6.10;;;;;;;-2.08;74.41;100967.92;105755;1254;61064;-29
2024/01/30 06:57:24;;;;;;;9.70;5.20;;;;;;;-2.04;74.17;100969.46;105338;1259;61246;-28
2024/01/30 06:59:51;;;;;;;6.80;4.20;;;;;;;-2.06;74.52;100970.98;105804;1257;73469;-29
2024/01/30 07:02:17;;;;;;;10.90;5.20;;;;;;;-1.65;73.99;100971.17;105613;1255;74397;-28
2024/01/30 07:04:45;;;;;;;11.30;6.60;;;;;;;-1.08;71.92;100974.85;105578;1258;72607;-28
2024/01/30 07:07:14;;;;;;;10.30;5.50;;;;;;;-0.76;71.53;100969.48;105654;1254;61068;-28
2024/01/30 07:09:41;;;;;;;8.80;4.40;;;;;;;-0.81;71.00;100966.75;105837;1263;61723;-28
2024/01/30 07:12:09;;;;;;;9.00;4.90;;;;;;;-0.98;71.40;100971.76;105672;1260;71881;-28
2024/01/30 07:14:35;;;;;;;10.40;5.60;;;;;;;-1.11;71.88;100967.37;105702;1257;74302;-29
2024/01/30 07:17:02;;;;;;;10.00;5.90;;;;;;;-1.05;71.88;100970.92;105583;1254;72692;-28
2024/01/30 07:19:29;;;;;;;11.60;6.10;;;;;;;-1.23;72.37;100966.36;105840;1257;61157;-28
2024/01/30 07:21:57;;;;;;;9.30;5.50;;;;;;;-1.25;72.62;100972.67;105761;1257;61573;-28
2024/01/30 07:24:24;;;;;;;11.70;7.00;;;;;;;-1.14;72.17;100976.58;105494;1255;73844;-28
2024/01/30 07:26:51;;;;;;;10.80;5.80;;;;;;;-1.04;72.30;100972.80;105584;1254;74672;-29
2024/01/30 07:29:19;;;;;;;11.20;6.90;;;;;;;-1.05;72.36;100971.95;105628;1259;72439;-28
2024/01/30 07:31:45;;;;;;;10.80;5.80;;;;;;;-0.88;72.06;100963.88;105633;1254;60988;-26
2024/01/30 07:34:12;;;;;;;7.20;4.10;;;;;;;-1.14;72.03;100967.18;105739;1257;61147;-25
2024/01/30 07:36:40;;;;;;;10.90;5.00;;;;;;;-1.14;72.62;100964.13;105645;1260;74412;-27
2024/01/30 07:39:06;;;;;;;6.30;3.40;;;;;;;-1.10;72.39;100963.77;105885;1258;74323;-28
2024/01/30 07:41:35;;;;;;;9.20;5.10;;;;;;;-1.12;72.25;100961.06;105812;1257;72518;-28
2024/01/30 07:44:04;;;;;;;5.30;3.50;;;;;;;-0.88;72.10;100956.72;105842;1258;61167;-28
2024/01/30 07:46:31;;;;;;;9.10;4.90;;;;;;;-0.12;70.18;100956.68;105878;1254;61052;-28
2024/01/30 07:49:00;;;;;;;10.40;6.60;;;;;;;-0.03;68.76;100954.90;105862;1257;74217;-27
2024/01/30 07:51:28;;;;;;;10.30;5.70;;;;;;;0.15;68.41;100960.41;105870;1263;74161;-27
2024/01/30 07:53:55;;;;;;;9.30;5.80;;;;;;;0.19;67.84;100961.91;105758;1252;72508;-27
2024/01/30 07:56:22;;;;;;;5.90;4.40;;;;;;;0.02;68.10;100962.39;105844;1255;61061;-27
2024/01/30 07:58:49;;;;;;;11.50;6.80;;;;;;;-0.21;68.31;100963.40;105845;1255;61111;-28
2024/01/30 08:01:16;;;;;;;7.20;4.90;;;;;;;-0.06;68.28;100972.02;105628;1261;74489;-28
2024/01/30 08:03:43;;;;;;;7.00;4.90;;;;;;;-0.08;68.06;100971.16;105867;1254;74467;-28
2024/01/30 08:06:10;;;;;;;11.20;6.80;;;;;;;-0.03;67.86;100965.66;105684;1254;72808;-28
2024/01/30 08:08:37;;;;;;;11.40;6.70;;;;;;;0.29;67.52;100972.45;105502;1254;60977;-28
2024/01/30 08:11:05;;;;;;;10.60;6.10;;;;;;;0.32;66.52;100968.31;105652;1254;61173;-28
2024/01/30 08:13:32;;;;;;;7.00;4.40;;;;;;;0.27;66.88;100966.48;105662;1259;74845;-28
2024/01/30 08:15:59;;;;;;;10.70;5.70;;;;;;;0.37;66.57;100966.22;105805;1256;74303;-28
2024/01/30 08:18:26;;;;;;;9.70;5.80;;;;;;;0.55;66.03;100965.88;105577;1254;72621;-26
2024/01/30 08:20:54;;;;;;;11.60;5.90;;;;;;;0.59;65.67;100965.34;105923;1252;61539;-27
2024/01/30 08:23:21;;;;;;;5.60;3.60;;;;;;;0.66;65.04;100965.61;105627;1256;61178;-27
2024/01/30 08:25:47;;;;;;;9.40;5.90;;;;;;;0.80;64.88;100961.89;105592;1254;73918;-26
2024/01/30 08:28:14;;;;;;;11.80;5.30;;;;;;;0.92;64.19;100958.17;105832;1257;74377;-26
2024/01/30 08:30:44;;;;;;;7.80;4.80;;;;;;;1.02;63.91;100960.46;105730;1266;73111;-26
2024/01/30 08:33:11;;;;;;;6.00;3.60;;;;;;;0.65;64.10;100946.81;105908;1255;61078;-26
2024/01/30 08:35:38;;;;;;;8.90;5.40;;;;;;;0.81;63.42;100952.48;105913;1254;61188;-26
2024/01/30 08:38:05;;;;;;;4.20;3.10;;;;;;;0.91;63.40;100953.56;105927;1254;75257;-26
2024/01/30 08:40:32;;;;;;;9.50;6.00;;;;;;;0.84;63.06;100948.16;105885;1254;74399;-26
2024/01/30 08:42:59;;;;;;;5.20;3.80;;;;;;;0.68;63.08;100948.66;105550;1254;72346;-27
2024/01/30 08:45:26;;;;;;;6.50;4.00;;;;;;;0.61;63.29;100952.48;105758;1253;61064;-26
2024/01/30 08:47:53;;;;;;;9.30;5.20;;;;;;;0.63;63.36;100946.16;105530;1258;61852;-26
2024/01/30 08:50:20;;;;;;;9.70;5.10;;;;;;;0.96;62.56;100946.48;105630;1254;74210;-27
2024/01/30 08:52:47;;;;;;;6.10;3.70;;;;;;;1.16;61.85;100941.11;105853;1254;74345;-26
2024/01/30 08:55:16;;;;;;;6.10;3.80;;;;;;;1.12;61.18;100937.92;105755;1257;70768;-26
2024/01/30 08:57:43;;;;;;;6.80;3.80;;;;;;;1.38;60.90;100934.02;105852;1254;61014;-26
2024/01/30 09:00:11;;;;;;;12.80;4.80;;;;;;;1.26;60.22;100932.12;105876;1257;61061;-26
2024/01/30 09:02:38;;;;;;;9.00;4.50;;;;;;;1.44;59.78;100923.66;105495;1254;73998;-26
2024/01/30 09:05:06;;;;;;;5.20;3.70;;;;;;;1.66;59.73;100932.44;105559;1253;74491;-27
2024/01/30 09:07:34;;;;;;;7.90;4.30;;;;;;;1.63;59.23;100924.95;105675;1259;72413;-26
2024/01/30 09:10:01;;;;;;;5.10;3.70;;;;;;;1.91;58.79;100931.20;105866;1254;61046;-26
2024/01/30 09:12:28;;;;;;;6.30;3.10;;;;;;;1.85;58.54;100936.27;105810;1254;61142;-26
2024/01/30 09:14:55;;;;;;;9.10;5.30;;;;;;;2.06;57.99;100931.48;105775;1253;74947;-27
2024/01/30 09:17:22;;;;;;;7.00;3.80;;;;;;;2.06;57.67;100929.95;105867;1254;75639;-27
2024/01/30 09:19:49;;;;;;;8.60;4.20;;;;;;;2.14;57.14;100918.52;105843;1254;72353;-28
2024/01/30 09:22:16;;;;;;;6.80;4.10;;;;;;;2.40;56.56;100923.05;105521;1254;61827;-27
2024/01/30 09:24:43;;;;;;;7.40;3.80;;;;;;;2.16;56.78;100917.44;105658;1257;61685;-28
2024/01/30 09:27:10;;;;;;;8.10;4.00;;;;;;;1.97;57.04;100919.46;105837;1253;74394;-27
2024/01/30 09:29:37;;;;;;;5.70;3.20;;;;;;;1.97;56.83;100910.89;105792;1254;75882;-27
2024/01/30 09:32:06;;;;;;;7.90;4.40;;;;;;;2.23;56.39;100909.45;105817;1257;73832;-28
2024/01/30 09:34:33;;;;;;;7.40;4.10;;;;;;;2.30;56.17;100901.44;105482;1256;61086;-27
2024/01/30 09:37:00;;;;;;;10.60;4.90;;;;;;;2.83;55.47;100905.97;105628;1254;61720;-28
2024/01/30 09:39:28;;;;;;;5.50;2.90;;;;;;;2.91;54.64;100906.50;105511;1252;73789;-27
2024/01/30 09:42:14;;;;;;;5.80;3.20;;;;;;;2.69;54.66;100900.58;105611;1257;73261;-27
2024/01/30 09:44:42;;;;;;;7.30;4.00;;;;;;;2.71;55.22;100898.46;105551;1254;72082;-27
2024/01/30 09:47:10;;;;;;;4.70;2.80;;;;;;;3.10;54.13;100897.17;105600;1259;61240;-28
2024/01/30 09:49:36;;;;;;;9.60;3.80;;;;;;;2.96;54.25;100897.30;105865;1256;61097;-27
2024/01/30 09:52:05;;;;;;;4.40;2.90;;;;;;;2.98;54.36;100895.55;105499;1254;72832;-28
2024/01/30 09:54:32;;;;;;;6.50;4.20;;;;;;;2.90;54.65;100890.73;105684;1259;73939;-28
2024/01/30 09:57:04;;;;;;;6.70;4.20;;;;;;;3.20;53.84;100892.00;105675;1257;72495;-28
2024/01/30 09:59:31;;;;;;;7.30;4.00;;;;;;;3.43;53.25;100891.14;105665;1253;61189;-28
2024/01/30 10:01:58;;;;;;;6.90;3.90;;;;;;;3.38;53.19;100881.48;105615;1255;61061;-27
2024/01/30 10:04:26;;;;;;;10.80;5.20;;;;;;;3.55;52.99;100883.52;105874;1254;72814;-29
2024/01/30 10:06:53;;;;;;;8.20;4.20;;;;;;;3.83;53.12;100877.36;105507;1254;75932;-28
2024/01/30 10:09:20;;;;;;;6.20;3.30;;;;;;;3.65;53.22;100871.75;105551;1256;74154;-28
2024/01/30 10:11:47;;;;;;;6.30;4.00;;;;;;;3.31;53.19;100870.82;105695;1254;61056;-29
2024/01/30 10:14:14;;;;;;;8.30;4.90;;;;;;;3.41;53.08;100864.92;105767;1254;61433;-29
2024/01/30 10:16:40;;;;;;;6.50;3.80;;;;;;;3.39;52.80;100868.08;105752;1253;74945;-28
2024/01/30 10:19:08;;;;;;;7.00;3.70;;;;;;;3.09;53.09;100862.02;105893;1254;74818;-29
2024/01/30 10:21:35;;;;;;;7.90;4.10;;;;;;;3.51;52.78;100854.90;105898;1257;72909;-28
2024/01/30 10:24:02;;;;;;;5.90;3.50;;;;;;;3.35;52.52;100852.00;105857;1254;61136;-30
2024/01/30 10:26:29;;;;;;;6.00;3.70;;;;;;;3.47;53.37;100855.35;105894;1253;61166;-29
2024/01/30 10:28:56;;;;;;;7.60;4.40;;;;;;;3.98;51.59;100851.22;105715;1257;74155;-28
2024/01/30 10:31:24;;;;;;;6.20;4.70;;;;;;;4.30;51.08;100855.55;105848;1254;74274;-29
2024/01/30 10:33:51;;;;;;;6.30;3.60;;;;;;;4.65;50.52;100848.77;105873;1256;71410;-29
2024/01/30 10:36:18;;;;;;;7.30;4.20;;;;;;;4.76;49.64;100843.98;105907;1253;62521;-29
2024/01/30 10:38:47;;;;;;;6.90;4.60;;;;;;;5.03;49.79;100844.06;105749;1258;61058;-28
2024/01/30 10:41:15;;;;;;;7.20;4.00;;;;;;;5.23;48.83;100835.90;105619;1254;75081;-28
2024/01/30 10:43:42;;;;;;;6.10;4.30;;;;;;;5.38;49.13;100840.79;105660;1256;73637;-29
2024/01/30 10:46:19;;;;;;;8.20;4.20;;;;;;;5.02;48.17;100837.91;105634;1255;71794;-28
2024/01/30 10:48:58;;;;;;;7.80;3.60;;;;;;;4.67;48.72;100835.98;105690;1258;61720;-28
2024/01/30 10:51:29;;;;;;;7.00;4.10;;;;;;;4.49;49.20;100832.71;105724;1260;61174;-28
2024/01/30 10:53:56;;;;;;;6.60;3.90;;;;;;;4.96;48.69;100822.41;105730;1254;74418;-27
2024/01/30 10:56:24;;;;;;;7.20;3.50;;;;;;;5.17;47.57;100818.52;105766;1257;75796;-28
2024/01/30 10:58:52;;;;;;;8.00;4.70;;;;;;;5.27;47.94;100815.64;105365;1258;72915;-28
2024/01/30 11:01:22;;;;;;;6.60;3.90;;;;;;;5.44;47.68;100819.39;105275;1260;61144;-28
2024/01/30 11:03:53;;;;;;;4.90;3.40;;;;;;;5.47;47.53;100815.20;105661;1254;61744;-28
2024/01/30 11:06:24;;;;;;;5.80;3.30;;;;;;;5.16;48.05;100812.34;105668;1254;73075;-28
2024/01/30 11:09:09;;;;;;;6.00;4.10;;;;;;;5.17;47.70;100807.34;105594;1260;73960;-28
2024/01/30 11:12:00;;;;;;;6.30;3.80;;;;;;;5.32;47.16;100804.62;105701;1260;71378;-28
2024/01/30 11:14:27;;;;;;;4.50;3.20;;;;;;;5.23;47.29;100803.53;105606;1258;61087;-27
2024/01/30 11:16:58;;;;;;;6.00;3.60;;;;;;;5.29;48.29;100803.52;105443;1259;61661;-28
2024/01/30 11:19:26;;;;;;;5.80;3.80;;;;;;;5.27;47.67;100795.64;105698;1254;74114;-28
2024/01/30 11:21:54;;;;;;;6.80;4.10;;;;;;;5.45;47.37;100791.64;105680;1258;74581;-26
2024/01/30 11:24:21;;;;;;;7.70;4.20;;;;;;;5.58;47.10;100791.56;105539;1253;71642;-26
2024/01/30 11:27:01;;;;;;;3.60;2.90;;;;;;;5.66;48.08;100788.38;105854;1257;61017;-26
2024/01/30 11:29:28;;;;;;;7.10;3.90;;;;;;;5.29;47.64;100785.95;105676;1253;61265;-27
2024/01/30 11:31:57;;;;;;;7.40;4.50;;;;;;;5.29;48.19;100776.14;105761;1253;74336;-26
2024/01/30 11:34:23;;;;;;;5.90;3.30;;;;;;;4.84;48.71;100776.29;105692;1253;74572;-27
2024/01/30 11:36:59;;;;;;;5.20;3.40;;;;;;;4.63;49.57;100770.02;105699;1253;71761;-27
2024/01/30 11:39:27;;;;;;;7.90;4.20;;;;;;;4.90;48.73;100771.98;105819;1257;61113;-27
2024/01/30 11:41:54;;;;;;;6.70;3.40;;;;;;;5.25;48.66;100769.38;105857;1257;62143;-27
2024/01/30 11:44:22;;;;;;;7.90;3.40;;;;;;;4.95;48.55;100763.73;105573;1253;75439;-27
2024/01/30 11:46:51;;;;;;;6.60;3.90;;;;;;;4.92;48.67;100753.50;105394;1253;75764;-26
2024/01/30 11:49:18;;;;;;;5.20;3.40;;;;;;;4.85;48.61;100755.09;105590;1254;71515;-27
2024/01/30 11:51:45;;;;;;;4.60;2.70;;;;;;;4.80;48.83;100752.48;105680;1257;61027;-27
2024/01/30 11:54:12;;;;;;;6.20;3.90;;;;;;;4.62;49.25;100754.58;105682;1253;61132;-27
2024/01/30 11:56:40;;;;;;;8.40;3.70;;;;;;;4.70;49.58;100752.64;105629;1253;75767;-27
2024/01/30 11:59:07;;;;;;;5.90;3.90;;;;;;;4.71;49.42;100749.16;105601;1254;75846;-29
2024/01/30 12:01:34;;;;;;;5.80;3.50;;;;;;;4.71;49.15;100748.83;105658;1254;72740;-27
2024/01/30 12:04:01;;;;;;;3.90;2.50;;;;;;;4.81;48.97;100752.13;105528;1254;61116;-28
2024/01/30 12:06:28;;;;;;;5.10;3.30;;;;;;;4.84;48.95;100747.21;105700;1256;61636;-28
2024/01/30 12:08:59;;;;;;;5.20;3.50;;;;;;;4.80;48.74;100742.38;105855;1254;74920;-28
2024/01/30 12:11:27;;;;;;;5.90;3.70;;;;;;;4.60;49.40;100742.76;105727;1253;75834;-30
2024/01/30 12:13:54;;;;;;;6.10;3.40;;;;;;;4.81;48.87;100744.39;105693;1254;73517;-29
2024/01/30 12:16:22;;;;;;;6.20;3.30;;;;;;;4.63;49.38;100742.50;105860;1256;61096;-28
2024/01/30 12:18:49;;;;;;;6.20;3.30;;;;;;;4.60;49.21;100740.35;105872;1255;61102;-28
2024/01/30 12:21:17;;;;;;;4.70;3.20;;;;;;;4.37;49.74;100740.16;105849;1253;75543;-29
2024/01/30 12:23:45;;;;;;;3.90;2.80;;;;;;;4.61;49.56;100740.66;105704;1253;74402;-27
2024/01/30 12:26:12;;;;;;;4.80;3.10;;;;;;;4.47;49.90;100741.08;105541;1253;74300;-28